sensor_id;sensor_type;location;lat;lon;timestamp;temperature;humidity
25440;DHT22;13365;52.208;5.488;2022-12-29T00:02:02;14.50;99.90
25440;DHT22;13365;52.208;5.488;2022-12-29T00:04:27;14.60;99.90
25440;DHT22;13365;52.208;5.488;2022-12-29T00:06:53;14.80;99.90
25440;DHT22;13365;52.208;5.488;2022-12-29T00:09:19;14.80;99.90
25440;DHT22;13365;52.208;5.488;2022-12-29T00:11:45;14.70;99.90
25440;DHT22;13365;52.208;5.488;2022-12-29T00:14:12;14.70;99.90
25440;DHT22;13365;52.208;5.488;2022-12-29T00:16:56;14.60;99.90
25440;DHT22;13365;52.208;5.488;2022-12-29T00:19:23;14.50;99.90
25440;DHT22;13365;52.208;5.488;2022-12-29T00:22:11;14.50;99.90
25440;DHT22;13365;52.208;5.488;2022-12-29T00:24:56;14.30;99.90
25440;DHT22;13365;52.208;5.488;2022-12-29T00:27:40;14.20;99.90
25440;DHT22;13365;52.208;5.488;2022-12-29T00:30:24;14.10;99.90
25440;DHT22;13365;52.208;5.488;2022-12-29T00:33:13;14.10;99.90
25440;DHT22;13365;52.208;5.488;2022-12-29T00:36:07;14.10;99.90
25440;DHT22;13365;52.208;5.488;2022-12-29T00:38:36;14.10;99.90
25440;DHT22;13365;52.208;5.488;2022-12-29T00:41:21;14.20;99.90
25440;DHT22;13365;52.208;5.488;2022-12-29T00:44:06;14.30;99.90
25440;DHT22;13365;52.208;5.488;2022-12-29T00:46:33;14.40;99.90
25440;DHT22;13365;52.208;5.488;2022-12-29T00:49:00;14.50;99.90
25440;DHT22;13365;52.208;5.488;2022-12-29T00:51:44;14.40;99.90
25440;DHT22;13365;52.208;5.488;2022-12-29T00:54:10;14.40;99.90
25440;DHT22;13365;52.208;5.488;2022-12-29T00:56:35;14.30;99.90
25440;DHT22;13365;52.208;5.488;2022-12-29T00:59:03;14.50;99.90
25440;DHT22;13365;52.208;5.488;2022-12-29T01:01:29;14.50;99.90
25440;DHT22;13365;52.208;5.488;2022-12-29T01:03:54;14.40;99.90
25440;DHT22;13365;52.208;5.488;2022-12-29T01:06:20;14.50;99.90
25440;DHT22;13365;52.208;5.488;2022-12-29T01:08:45;14.50;99.90
25440;DHT22;13365;52.208;5.488;2022-12-29T01:11:12;14.60;99.90
25440;DHT22;13365;52.208;5.488;2022-12-29T01:13:38;14.50;99.90
25440;DHT22;13365;52.208;5.488;2022-12-29T01:16:06;14.50;99.90
25440;DHT22;13365;52.208;5.488;2022-12-29T01:18:32;14.50;99.90
25440;DHT22;13365;52.208;5.488;2022-12-29T01:21:04;14.40;99.90
25440;DHT22;13365;52.208;5.488;2022-12-29T01:23:30;14.30;99.90
25440;DHT22;13365;52.208;5.488;2022-12-29T01:25:56;14.30;99.90
25440;DHT22;13365;52.208;5.488;2022-12-29T01:28:22;14.40;99.90
25440;DHT22;13365;52.208;5.488;2022-12-29T01:30:48;14.50;99.90
25440;DHT22;13365;52.208;5.488;2022-12-29T01:33:13;14.50;99.90
25440;DHT22;13365;52.208;5.488;2022-12-29T01:35:39;14.50;99.90
25440;DHT22;13365;52.208;5.488;2022-12-29T01:38:05;14.50;99.90
25440;DHT22;13365;52.208;5.488;2022-12-29T01:40:31;14.40;99.90
25440;DHT22;13365;52.208;5.488;2022-12-29T01:42:56;14.20;99.90
25440;DHT22;13365;52.208;5.488;2022-12-29T01:45:22;14.10;99.90
25440;DHT22;13365;52.208;5.488;2022-12-29T01:47:57;14.10;99.90
25440;DHT22;13365;52.208;5.488;2022-12-29T01:50:30;14.10;99.90
25440;DHT22;13365;52.208;5.488;2022-12-29T01:53:07;14.10;99.90
25440;DHT22;13365;52.208;5.488;2022-12-29T01:55:49;14.10;99.90
25440;DHT22;13365;52.208;5.488;2022-12-29T01:58:17;14.10;99.90
25440;DHT22;13365;52.208;5.488;2022-12-29T02:00:44;14.20;99.90
25440;DHT22;13365;52.208;5.488;2022-12-29T02:03:10;14.20;99.90
25440;DHT22;13365;52.208;5.488;2022-12-29T02:06:09;14.10;99.90
25440;DHT22;13365;52.208;5.488;2022-12-29T02:08:38;14.10;99.90
25440;DHT22;13365;52.208;5.488;2022-12-29T02:11:05;14.10;99.90
25440;DHT22;13365;52.208;5.488;2022-12-29T02:13:31;14.40;99.90
25440;DHT22;13365;52.208;5.488;2022-12-29T02:19:23;14.40;99.90
25440;DHT22;13365;52.208;5.488;2022-12-29T02:33:38;14.20;99.90
25440;DHT22;13365;52.208;5.488;2022-12-29T02:36:15;14.30;99.90
25440;DHT22;13365;52.208;5.488;2022-12-29T02:39:05;14.30;99.90
25440;DHT22;13365;52.208;5.488;2022-12-29T02:41:51;14.30;99.90
25440;DHT22;13365;52.208;5.488;2022-12-29T02:44:27;14.40;99.90
25440;DHT22;13365;52.208;5.488;2022-12-29T02:47:04;14.70;99.90
25440;DHT22;13365;52.208;5.488;2022-12-29T02:52:16;14.70;99.90
25440;DHT22;13365;52.208;5.488;2022-12-29T02:54:43;14.60;99.90
25440;DHT22;13365;52.208;5.488;2022-12-29T02:57:29;14.50;99.90
25440;DHT22;13365;52.208;5.488;2022-12-29T02:59:56;14.40;99.90
25440;DHT22;13365;52.208;5.488;2022-12-29T03:08:44;14.30;99.90
25440;DHT22;13365;52.208;5.488;2022-12-29T03:11:13;14.20;99.90
25440;DHT22;13365;52.208;5.488;2022-12-29T03:14:08;14.30;99.90
25440;DHT22;13365;52.208;5.488;2022-12-29T03:17:00;14.30;99.90
25440;DHT22;13365;52.208;5.488;2022-12-29T03:19:34;14.30;99.90
25440;DHT22;13365;52.208;5.488;2022-12-29T03:22:15;14.00;99.90
25440;DHT22;13365;52.208;5.488;2022-12-29T03:25:03;13.90;99.90
25440;DHT22;13365;52.208;5.488;2022-12-29T03:27:39;13.80;99.90
25440;DHT22;13365;52.208;5.488;2022-12-29T03:30:07;13.80;99.90
25440;DHT22;13365;52.208;5.488;2022-12-29T03:32:47;13.70;99.90
25440;DHT22;13365;52.208;5.488;2022-12-29T03:35:16;13.90;99.90
25440;DHT22;13365;52.208;5.488;2022-12-29T03:37:52;13.90;99.90
25440;DHT22;13365;52.208;5.488;2022-12-29T03:40:21;13.90;99.90
25440;DHT22;13365;52.208;5.488;2022-12-29T03:42:48;14.00;99.90
25440;DHT22;13365;52.208;5.488;2022-12-29T03:45:13;14.00;99.90
25440;DHT22;13365;52.208;5.488;2022-12-29T03:47:39;14.10;99.90
25440;DHT22;13365;52.208;5.488;2022-12-29T03:50:05;14.10;99.90
25440;DHT22;13365;52.208;5.488;2022-12-29T03:52:31;14.00;99.90
25440;DHT22;13365;52.208;5.488;2022-12-29T03:54:57;13.80;99.90
25440;DHT22;13365;52.208;5.488;2022-12-29T03:57:22;13.80;99.90
25440;DHT22;13365;52.208;5.488;2022-12-29T03:59:48;14.00;99.90
25440;DHT22;13365;52.208;5.488;2022-12-29T04:02:13;14.00;99.90
25440;DHT22;13365;52.208;5.488;2022-12-29T04:04:39;13.90;99.90
25440;DHT22;13365;52.208;5.488;2022-12-29T04:07:04;14.00;99.90
25440;DHT22;13365;52.208;5.488;2022-12-29T04:09:30;14.10;99.90
25440;DHT22;13365;52.208;5.488;2022-12-29T04:11:56;14.10;99.90
25440;DHT22;13365;52.208;5.488;2022-12-29T04:14:22;14.10;99.90
25440;DHT22;13365;52.208;5.488;2022-12-29T04:16:47;14.00;99.90
25440;DHT22;13365;52.208;5.488;2022-12-29T04:19:13;13.90;99.90
25440;DHT22;13365;52.208;5.488;2022-12-29T04:21:38;13.80;99.90
25440;DHT22;13365;52.208;5.488;2022-12-29T04:24:05;13.80;99.90
25440;DHT22;13365;52.208;5.488;2022-12-29T04:26:34;13.90;99.90
25440;DHT22;13365;52.208;5.488;2022-12-29T04:28:59;14.00;99.90
25440;DHT22;13365;52.208;5.488;2022-12-29T04:31:25;14.10;99.90
25440;DHT22;13365;52.208;5.488;2022-12-29T04:33:50;14.20;99.90
25440;DHT22;13365;52.208;5.488;2022-12-29T04:36:16;14.20;99.90
25440;DHT22;13365;52.208;5.488;2022-12-29T04:38:42;14.20;99.90
25440;DHT22;13365;52.208;5.488;2022-12-29T04:41:07;14.10;99.90
25440;DHT22;13365;52.208;5.488;2022-12-29T04:43:33;14.00;99.90
25440;DHT22;13365;52.208;5.488;2022-12-29T04:45:58;14.10;99.90
25440;DHT22;13365;52.208;5.488;2022-12-29T04:48:24;13.90;99.90
25440;DHT22;13365;52.208;5.488;2022-12-29T04:50:49;14.00;99.90
25440;DHT22;13365;52.208;5.488;2022-12-29T04:53:16;13.90;99.90
25440;DHT22;13365;52.208;5.488;2022-12-29T04:55:42;13.90;99.90
25440;DHT22;13365;52.208;5.488;2022-12-29T04:58:07;13.60;99.90
25440;DHT22;13365;52.208;5.488;2022-12-29T05:00:33;13.40;99.90
25440;DHT22;13365;52.208;5.488;2022-12-29T05:02:59;13.40;99.90
25440;DHT22;13365;52.208;5.488;2022-12-29T05:05:25;13.50;99.90
25440;DHT22;13365;52.208;5.488;2022-12-29T05:07:50;13.40;99.90
25440;DHT22;13365;52.208;5.488;2022-12-29T05:10:16;13.30;99.90
25440;DHT22;13365;52.208;5.488;2022-12-29T05:12:42;13.60;99.90
25440;DHT22;13365;52.208;5.488;2022-12-29T05:15:09;14.10;99.90
25440;DHT22;13365;52.208;5.488;2022-12-29T05:17:35;14.20;99.90
25440;DHT22;13365;52.208;5.488;2022-12-29T05:20:01;14.20;99.90
25440;DHT22;13365;52.208;5.488;2022-12-29T05:22:26;14.40;99.90
25440;DHT22;13365;52.208;5.488;2022-12-29T05:24:52;14.20;99.90
25440;DHT22;13365;52.208;5.488;2022-12-29T05:27:17;13.90;99.90
25440;DHT22;13365;52.208;5.488;2022-12-29T05:29:43;13.80;99.90
25440;DHT22;13365;52.208;5.488;2022-12-29T05:32:08;13.70;99.90
25440;DHT22;13365;52.208;5.488;2022-12-29T05:34:34;13.50;99.90
25440;DHT22;13365;52.208;5.488;2022-12-29T05:36:59;13.50;99.90
25440;DHT22;13365;52.208;5.488;2022-12-29T05:39:26;13.60;99.90
25440;DHT22;13365;52.208;5.488;2022-12-29T05:41:51;13.60;99.90
25440;DHT22;13365;52.208;5.488;2022-12-29T05:44:17;13.70;99.90
25440;DHT22;13365;52.208;5.488;2022-12-29T05:46:42;13.70;99.90
25440;DHT22;13365;52.208;5.488;2022-12-29T05:49:08;13.80;99.90
25440;DHT22;13365;52.208;5.488;2022-12-29T05:51:33;13.60;99.90
25440;DHT22;13365;52.208;5.488;2022-12-29T05:53:59;13.50;99.90
25440;DHT22;13365;52.208;5.488;2022-12-29T05:56:24;13.60;99.90
25440;DHT22;13365;52.208;5.488;2022-12-29T05:58:50;13.80;99.90
25440;DHT22;13365;52.208;5.488;2022-12-29T06:01:15;13.60;99.90
25440;DHT22;13365;52.208;5.488;2022-12-29T06:03:41;13.60;99.90
25440;DHT22;13365;52.208;5.488;2022-12-29T06:06:06;13.50;99.90
25440;DHT22;13365;52.208;5.488;2022-12-29T06:08:32;13.50;99.90
25440;DHT22;13365;52.208;5.488;2022-12-29T06:10:58;13.50;99.90
25440;DHT22;13365;52.208;5.488;2022-12-29T06:13:23;13.30;99.90
25440;DHT22;13365;52.208;5.488;2022-12-29T06:15:49;13.30;99.90
25440;DHT22;13365;52.208;5.488;2022-12-29T06:18:15;13.10;99.90
25440;DHT22;13365;52.208;5.488;2022-12-29T06:20:40;13.10;99.90
25440;DHT22;13365;52.208;5.488;2022-12-29T06:23:06;13.30;99.90
25440;DHT22;13365;52.208;5.488;2022-12-29T06:25:32;13.20;99.90
25440;DHT22;13365;52.208;5.488;2022-12-29T06:27:58;13.20;99.90
25440;DHT22;13365;52.208;5.488;2022-12-29T06:30:24;13.10;99.90
25440;DHT22;13365;52.208;5.488;2022-12-29T06:32:50;13.20;99.90
25440;DHT22;13365;52.208;5.488;2022-12-29T06:35:16;13.10;99.90
25440;DHT22;13365;52.208;5.488;2022-12-29T06:37:42;13.20;99.90
25440;DHT22;13365;52.208;5.488;2022-12-29T06:40:09;13.30;99.90
25440;DHT22;13365;52.208;5.488;2022-12-29T06:42:34;13.20;99.90
25440;DHT22;13365;52.208;5.488;2022-12-29T06:45:00;13.20;99.90
25440;DHT22;13365;52.208;5.488;2022-12-29T06:47:26;13.10;99.90
25440;DHT22;13365;52.208;5.488;2022-12-29T06:49:51;13.10;99.90
25440;DHT22;13365;52.208;5.488;2022-12-29T06:52:17;12.90;99.90
25440;DHT22;13365;52.208;5.488;2022-12-29T06:54:42;13.00;99.90
25440;DHT22;13365;52.208;5.488;2022-12-29T06:57:08;13.10;99.90
25440;DHT22;13365;52.208;5.488;2022-12-29T06:59:33;13.10;99.90
25440;DHT22;13365;52.208;5.488;2022-12-29T07:01:59;13.00;99.90
25440;DHT22;13365;52.208;5.488;2022-12-29T07:04:27;13.00;99.90
25440;DHT22;13365;52.208;5.488;2022-12-29T07:06:53;13.00;99.90
25440;DHT22;13365;52.208;5.488;2022-12-29T07:09:18;13.00;99.90
25440;DHT22;13365;52.208;5.488;2022-12-29T07:11:44;13.00;99.90
25440;DHT22;13365;52.208;5.488;2022-12-29T07:14:11;13.00;99.90
25440;DHT22;13365;52.208;5.488;2022-12-29T07:16:37;12.90;99.90
25440;DHT22;13365;52.208;5.488;2022-12-29T07:19:03;12.80;99.90
25440;DHT22;13365;52.208;5.488;2022-12-29T07:21:28;12.70;99.90
25440;DHT22;13365;52.208;5.488;2022-12-29T07:23:54;12.60;99.90
25440;DHT22;13365;52.208;5.488;2022-12-29T07:26:20;12.50;99.90
25440;DHT22;13365;52.208;5.488;2022-12-29T07:28:45;12.70;99.90
25440;DHT22;13365;52.208;5.488;2022-12-29T07:31:16;12.60;99.90
25440;DHT22;13365;52.208;5.488;2022-12-29T07:33:43;12.70;99.90
25440;DHT22;13365;52.208;5.488;2022-12-29T07:36:09;12.60;99.90
25440;DHT22;13365;52.208;5.488;2022-12-29T07:38:35;12.60;99.90
25440;DHT22;13365;52.208;5.488;2022-12-29T07:41:00;12.50;99.90
25440;DHT22;13365;52.208;5.488;2022-12-29T07:43:26;12.30;99.90
25440;DHT22;13365;52.208;5.488;2022-12-29T07:45:51;12.50;99.90
25440;DHT22;13365;52.208;5.488;2022-12-29T07:48:17;12.60;99.90
25440;DHT22;13365;52.208;5.488;2022-12-29T07:50:42;12.60;99.90
25440;DHT22;13365;52.208;5.488;2022-12-29T07:53:08;12.60;99.90
25440;DHT22;13365;52.208;5.488;2022-12-29T07:55:33;12.60;99.90
25440;DHT22;13365;52.208;5.488;2022-12-29T07:57:59;12.40;99.90
25440;DHT22;13365;52.208;5.488;2022-12-29T08:00:25;12.30;99.90
25440;DHT22;13365;52.208;5.488;2022-12-29T08:02:50;12.30;99.90
25440;DHT22;13365;52.208;5.488;2022-12-29T08:05:16;12.40;99.90
25440;DHT22;13365;52.208;5.488;2022-12-29T08:07:46;12.40;99.90
25440;DHT22;13365;52.208;5.488;2022-12-29T08:10:12;12.40;99.90
25440;DHT22;13365;52.208;5.488;2022-12-29T08:12:39;12.30;99.90
25440;DHT22;13365;52.208;5.488;2022-12-29T08:15:07;12.20;99.90
25440;DHT22;13365;52.208;5.488;2022-12-29T08:17:33;12.20;99.90
25440;DHT22;13365;52.208;5.488;2022-12-29T08:19:59;12.20;99.90
25440;DHT22;13365;52.208;5.488;2022-12-29T08:22:24;12.20;99.90
25440;DHT22;13365;52.208;5.488;2022-12-29T08:24:50;12.30;99.90
25440;DHT22;13365;52.208;5.488;2022-12-29T08:27:17;12.50;99.90
25440;DHT22;13365;52.208;5.488;2022-12-29T08:29:42;12.60;99.90
25440;DHT22;13365;52.208;5.488;2022-12-29T08:32:08;12.60;99.90
25440;DHT22;13365;52.208;5.488;2022-12-29T08:34:34;12.60;99.90
25440;DHT22;13365;52.208;5.488;2022-12-29T08:36:59;12.50;99.90
25440;DHT22;13365;52.208;5.488;2022-12-29T08:39:25;12.70;99.90
25440;DHT22;13365;52.208;5.488;2022-12-29T08:41:50;12.70;99.90
25440;DHT22;13365;52.208;5.488;2022-12-29T08:44:16;12.70;99.90
25440;DHT22;13365;52.208;5.488;2022-12-29T08:46:41;12.60;99.90
25440;DHT22;13365;52.208;5.488;2022-12-29T08:49:07;12.70;99.90
25440;DHT22;13365;52.208;5.488;2022-12-29T08:51:33;12.70;99.90
25440;DHT22;13365;52.208;5.488;2022-12-29T08:53:59;12.70;99.90
25440;DHT22;13365;52.208;5.488;2022-12-29T08:56:25;12.70;99.90
25440;DHT22;13365;52.208;5.488;2022-12-29T08:58:51;12.60;99.90
25440;DHT22;13365;52.208;5.488;2022-12-29T09:01:18;12.70;99.90
25440;DHT22;13365;52.208;5.488;2022-12-29T09:03:43;12.70;99.90
25440;DHT22;13365;52.208;5.488;2022-12-29T09:06:09;12.90;99.90
25440;DHT22;13365;52.208;5.488;2022-12-29T09:08:34;13.00;99.90
25440;DHT22;13365;52.208;5.488;2022-12-29T09:11:15;13.10;99.90
25440;DHT22;13365;52.208;5.488;2022-12-29T09:13:42;13.10;99.90
25440;DHT22;13365;52.208;5.488;2022-12-29T09:16:08;12.80;99.90
25440;DHT22;13365;52.208;5.488;2022-12-29T09:18:34;12.80;99.90
25440;DHT22;13365;52.208;5.488;2022-12-29T09:21:01;12.70;99.90
25440;DHT22;13365;52.208;5.488;2022-12-29T09:23:27;12.60;99.90
25440;DHT22;13365;52.208;5.488;2022-12-29T09:25:53;12.80;99.90
25440;DHT22;13365;52.208;5.488;2022-12-29T09:28:19;12.90;99.90
25440;DHT22;13365;52.208;5.488;2022-12-29T09:30:45;12.80;99.90
25440;DHT22;13365;52.208;5.488;2022-12-29T09:33:10;12.80;99.90
25440;DHT22;13365;52.208;5.488;2022-12-29T09:35:36;12.90;99.90
25440;DHT22;13365;52.208;5.488;2022-12-29T09:38:02;12.90;99.90
25440;DHT22;13365;52.208;5.488;2022-12-29T09:40:30;12.90;99.90
25440;DHT22;13365;52.208;5.488;2022-12-29T09:45:47;12.90;99.90
25440;DHT22;13365;52.208;5.488;2022-12-29T09:48:17;12.80;99.90
25440;DHT22;13365;52.208;5.488;2022-12-29T09:50:49;12.90;99.90
25440;DHT22;13365;52.208;5.488;2022-12-29T09:55:59;12.90;99.90
25440;DHT22;13365;52.208;5.488;2022-12-29T09:58:40;13.00;99.90
25440;DHT22;13365;52.208;5.488;2022-12-29T10:01:21;13.10;99.90
25440;DHT22;13365;52.208;5.488;2022-12-29T10:03:52;13.10;99.90
25440;DHT22;13365;52.208;5.488;2022-12-29T10:06:37;13.20;99.90
25440;DHT22;13365;52.208;5.488;2022-12-29T10:09:23;13.10;99.90
25440;DHT22;13365;52.208;5.488;2022-12-29T10:17:48;13.00;99.90
25440;DHT22;13365;52.208;5.488;2022-12-29T10:20:52;12.80;99.90
25440;DHT22;13365;52.208;5.488;2022-12-29T10:23:27;12.80;99.90
25440;DHT22;13365;52.208;5.488;2022-12-29T10:25:58;12.90;99.90
25440;DHT22;13365;52.208;5.488;2022-12-29T10:28:33;13.00;99.90
25440;DHT22;13365;52.208;5.488;2022-12-29T10:31:00;13.00;99.90
25440;DHT22;13365;52.208;5.488;2022-12-29T10:33:34;13.00;99.90
25440;DHT22;13365;52.208;5.488;2022-12-29T10:36:16;13.00;99.90
25440;DHT22;13365;52.208;5.488;2022-12-29T10:38:54;13.00;99.90
25440;DHT22;13365;52.208;5.488;2022-12-29T10:41:28;13.00;99.90
25440;DHT22;13365;52.208;5.488;2022-12-29T10:43:58;13.10;99.90
25440;DHT22;13365;52.208;5.488;2022-12-29T10:46:30;13.30;99.90
25440;DHT22;13365;52.208;5.488;2022-12-29T10:48:58;13.30;99.90
25440;DHT22;13365;52.208;5.488;2022-12-29T10:51:29;13.40;99.90
25440;DHT22;13365;52.208;5.488;2022-12-29T10:56:41;13.50;99.90
25440;DHT22;13365;52.208;5.488;2022-12-29T10:59:20;13.60;99.90
25440;DHT22;13365;52.208;5.488;2022-12-29T11:06:56;13.40;99.90
25440;DHT22;13365;52.208;5.488;2022-12-29T11:09:28;13.20;99.90
25440;DHT22;13365;52.208;5.488;2022-12-29T11:11:54;13.20;99.90
25440;DHT22;13365;52.208;5.488;2022-12-29T11:14:30;13.40;99.90
25440;DHT22;13365;52.208;5.488;2022-12-29T11:17:01;13.40;99.90
25440;DHT22;13365;52.208;5.488;2022-12-29T11:19:33;13.40;99.90
25440;DHT22;13365;52.208;5.488;2022-12-29T11:22:12;13.30;99.90
25440;DHT22;13365;52.208;5.488;2022-12-29T11:24:44;13.20;99.90
25440;DHT22;13365;52.208;5.488;2022-12-29T11:27:23;13.20;99.90
25440;DHT22;13365;52.208;5.488;2022-12-29T11:29:51;13.20;99.90
25440;DHT22;13365;52.208;5.488;2022-12-29T11:32:22;13.30;99.90
25440;DHT22;13365;52.208;5.488;2022-12-29T11:34:49;13.30;99.90
25440;DHT22;13365;52.208;5.488;2022-12-29T11:42:38;13.60;99.90
25440;DHT22;13365;52.208;5.488;2022-12-29T11:45:16;13.70;99.90
25440;DHT22;13365;52.208;5.488;2022-12-29T11:47:45;13.80;99.90
25440;DHT22;13365;52.208;5.488;2022-12-29T11:50:18;14.00;99.90
25440;DHT22;13365;52.208;5.488;2022-12-29T11:52:46;14.20;99.90
25440;DHT22;13365;52.208;5.488;2022-12-29T11:55:19;14.30;99.90
25440;DHT22;13365;52.208;5.488;2022-12-29T11:57:45;14.30;99.90
25440;DHT22;13365;52.208;5.488;2022-12-29T12:00:20;14.40;99.90
25440;DHT22;13365;52.208;5.488;2022-12-29T12:03:00;14.30;99.90
25440;DHT22;13365;52.208;5.488;2022-12-29T12:05:46;14.10;99.90
25440;DHT22;13365;52.208;5.488;2022-12-29T12:11:04;14.40;99.90
25440;DHT22;13365;52.208;5.488;2022-12-29T12:13:39;14.20;99.90
25440;DHT22;13365;52.208;5.488;2022-12-29T12:16:17;14.20;99.90
25440;DHT22;13365;52.208;5.488;2022-12-29T12:19:16;14.10;99.90
25440;DHT22;13365;52.208;5.488;2022-12-29T12:21:50;14.10;99.90
25440;DHT22;13365;52.208;5.488;2022-12-29T12:27:00;14.20;99.90
25440;DHT22;13365;52.208;5.488;2022-12-29T12:29:35;14.10;99.90
25440;DHT22;13365;52.208;5.488;2022-12-29T12:32:24;13.90;99.90
25440;DHT22;13365;52.208;5.488;2022-12-29T12:34:51;13.70;99.90
25440;DHT22;13365;52.208;5.488;2022-12-29T12:40:29;13.60;99.90
25440;DHT22;13365;52.208;5.488;2022-12-29T12:42:50;13.40;99.90
25440;DHT22;13365;52.208;5.488;2022-12-29T12:46:01;13.40;99.90
25440;DHT22;13365;52.208;5.488;2022-12-29T12:51:20;13.60;99.90
25440;DHT22;13365;52.208;5.488;2022-12-29T12:54:09;13.70;99.90
25440;DHT22;13365;52.208;5.488;2022-12-29T12:56:44;13.50;99.90
25440;DHT22;13365;52.208;5.488;2022-12-29T12:59:30;13.60;99.90
25440;DHT22;13365;52.208;5.488;2022-12-29T13:05:20;13.50;99.90
25440;DHT22;13365;52.208;5.488;2022-12-29T13:15:57;14.30;99.90
25440;DHT22;13365;52.208;5.488;2022-12-29T13:26:50;14.30;99.90
25440;DHT22;13365;52.208;5.488;2022-12-29T13:29:31;14.20;99.90
25440;DHT22;13365;52.208;5.488;2022-12-29T13:37:47;14.10;99.90
25440;DHT22;13365;52.208;5.488;2022-12-29T13:40:17;14.30;99.90
25440;DHT22;13365;52.208;5.488;2022-12-29T13:42:45;14.40;99.90
25440;DHT22;13365;52.208;5.488;2022-12-29T13:45:19;14.20;99.90
25440;DHT22;13365;52.208;5.488;2022-12-29T13:48:23;14.00;99.90
25440;DHT22;13365;52.208;5.488;2022-12-29T13:50:52;14.00;99.90
25440;DHT22;13365;52.208;5.488;2022-12-29T13:58:38;14.10;99.90
25440;DHT22;13365;52.208;5.488;2022-12-29T14:03:57;14.10;99.90
25440;DHT22;13365;52.208;5.488;2022-12-29T14:08:57;14.30;99.90
25440;DHT22;13365;52.208;5.488;2022-12-29T14:11:32;14.40;99.80
25440;DHT22;13365;52.208;5.488;2022-12-29T14:13:59;14.50;99.60
25440;DHT22;13365;52.208;5.488;2022-12-29T14:16:36;14.30;99.70
25440;DHT22;13365;52.208;5.488;2022-12-29T14:19:17;14.30;99.80
25440;DHT22;13365;52.208;5.488;2022-12-29T14:21:55;14.40;99.80
25440;DHT22;13365;52.208;5.488;2022-12-29T14:34:47;13.30;99.90
25440;DHT22;13365;52.208;5.488;2022-12-29T14:37:31;13.40;99.90
25440;DHT22;13365;52.208;5.488;2022-12-29T14:42:46;13.20;99.90
25440;DHT22;13365;52.208;5.488;2022-12-29T14:47:44;13.20;99.90
25440;DHT22;13365;52.208;5.488;2022-12-29T14:52:59;12.70;99.90
25440;DHT22;13365;52.208;5.488;2022-12-29T14:55:41;12.60;99.90
25440;DHT22;13365;52.208;5.488;2022-12-29T15:00:39;12.90;99.90
25440;DHT22;13365;52.208;5.488;2022-12-29T15:03:14;13.00;99.90
25440;DHT22;13365;52.208;5.488;2022-12-29T15:06:05;13.10;99.90
25440;DHT22;13365;52.208;5.488;2022-12-29T15:08:35;13.30;99.90
25440;DHT22;13365;52.208;5.488;2022-12-29T15:11:32;13.50;99.90
25440;DHT22;13365;52.208;5.488;2022-12-29T15:14:33;13.60;99.90
25440;DHT22;13365;52.208;5.488;2022-12-29T15:17:00;13.40;99.90
25440;DHT22;13365;52.208;5.488;2022-12-29T15:19:27;13.40;99.90
25440;DHT22;13365;52.208;5.488;2022-12-29T15:21:56;13.40;99.90
25440;DHT22;13365;52.208;5.488;2022-12-29T15:24:23;13.50;99.90
25440;DHT22;13365;52.208;5.488;2022-12-29T15:26:51;13.40;99.90
25440;DHT22;13365;52.208;5.488;2022-12-29T15:29:37;13.20;99.90
25440;DHT22;13365;52.208;5.488;2022-12-29T15:34:43;12.70;99.90
25440;DHT22;13365;52.208;5.488;2022-12-29T15:37:08;12.50;99.90
25440;DHT22;13365;52.208;5.488;2022-12-29T15:39:34;12.70;99.90
25440;DHT22;13365;52.208;5.488;2022-12-29T15:42:06;12.80;99.90
25440;DHT22;13365;52.208;5.488;2022-12-29T15:44:37;12.70;99.90
25440;DHT22;13365;52.208;5.488;2022-12-29T15:47:21;12.60;99.90
25440;DHT22;13365;52.208;5.488;2022-12-29T15:49:49;12.70;99.90
25440;DHT22;13365;52.208;5.488;2022-12-29T15:52:20;12.80;99.90
25440;DHT22;13365;52.208;5.488;2022-12-29T15:54:48;12.70;99.90
25440;DHT22;13365;52.208;5.488;2022-12-29T15:57:28;12.60;99.90
25440;DHT22;13365;52.208;5.488;2022-12-29T15:59:54;12.70;99.90
25440;DHT22;13365;52.208;5.488;2022-12-29T16:02:22;12.80;99.90
25440;DHT22;13365;52.208;5.488;2022-12-29T16:04:49;12.80;99.90
25440;DHT22;13365;52.208;5.488;2022-12-29T16:07:32;12.60;99.90
25440;DHT22;13365;52.208;5.488;2022-12-29T16:10:00;12.50;99.90
25440;DHT22;13365;52.208;5.488;2022-12-29T16:12:35;12.50;99.90
25440;DHT22;13365;52.208;5.488;2022-12-29T16:15:06;12.50;99.90
25440;DHT22;13365;52.208;5.488;2022-12-29T16:17:49;12.60;99.90
25440;DHT22;13365;52.208;5.488;2022-12-29T16:20:24;12.60;99.90
25440;DHT22;13365;52.208;5.488;2022-12-29T16:22:53;12.80;99.90
25440;DHT22;13365;52.208;5.488;2022-12-29T16:25:27;12.70;99.90
25440;DHT22;13365;52.208;5.488;2022-12-29T16:27:53;12.70;99.90
25440;DHT22;13365;52.208;5.488;2022-12-29T16:30:25;12.80;99.90
25440;DHT22;13365;52.208;5.488;2022-12-29T16:32:52;12.80;99.90
25440;DHT22;13365;52.208;5.488;2022-12-29T16:38:30;12.60;99.90
25440;DHT22;13365;52.208;5.488;2022-12-29T16:41:02;12.40;99.90
25440;DHT22;13365;52.208;5.488;2022-12-29T16:43:33;12.40;99.90
25440;DHT22;13365;52.208;5.488;2022-12-29T16:48:26;12.40;99.90
25440;DHT22;13365;52.208;5.488;2022-12-29T16:51:15;12.40;99.90
25440;DHT22;13365;52.208;5.488;2022-12-29T16:53:48;12.50;99.90
25440;DHT22;13365;52.208;5.488;2022-12-29T16:56:17;12.40;99.90
25440;DHT22;13365;52.208;5.488;2022-12-29T16:59:06;12.20;99.90
25440;DHT22;13365;52.208;5.488;2022-12-29T17:01:38;12.20;99.90
25440;DHT22;13365;52.208;5.488;2022-12-29T17:04:05;12.00;99.90
25440;DHT22;13365;52.208;5.488;2022-12-29T17:06:31;12.10;99.90
25440;DHT22;13365;52.208;5.488;2022-12-29T17:08:57;12.00;99.90
25440;DHT22;13365;52.208;5.488;2022-12-29T17:11:33;12.00;99.90
25440;DHT22;13365;52.208;5.488;2022-12-29T17:14:38;11.90;99.90
25440;DHT22;13365;52.208;5.488;2022-12-29T17:19:45;11.90;99.90
25440;DHT22;13365;52.208;5.488;2022-12-29T17:22:23;11.90;99.90
25440;DHT22;13365;52.208;5.488;2022-12-29T17:24:51;11.90;99.90
25440;DHT22;13365;52.208;5.488;2022-12-29T17:27:26;11.90;99.90
25440;DHT22;13365;52.208;5.488;2022-12-29T17:29:55;12.00;99.90
25440;DHT22;13365;52.208;5.488;2022-12-29T17:32:21;11.90;99.90
25440;DHT22;13365;52.208;5.488;2022-12-29T17:34:47;11.90;99.90
25440;DHT22;13365;52.208;5.488;2022-12-29T17:37:32;11.80;99.90
25440;DHT22;13365;52.208;5.488;2022-12-29T17:39:58;11.80;99.90
25440;DHT22;13365;52.208;5.488;2022-12-29T17:42:23;11.80;99.90
25440;DHT22;13365;52.208;5.488;2022-12-29T17:44:49;11.80;99.90
25440;DHT22;13365;52.208;5.488;2022-12-29T17:47:15;11.90;99.90
25440;DHT22;13365;52.208;5.488;2022-12-29T17:49:40;12.00;99.90
25440;DHT22;13365;52.208;5.488;2022-12-29T17:52:11;12.00;99.90
25440;DHT22;13365;52.208;5.488;2022-12-29T17:54:43;11.80;99.90
25440;DHT22;13365;52.208;5.488;2022-12-29T17:57:14;11.90;99.90
25440;DHT22;13365;52.208;5.488;2022-12-29T17:59:40;11.80;99.90